Time;durP1;ratioP1;P1;durP2;ratioP2;P2;SDS_P1;SDS_P2;PMS_P1;PMS_P2;Temp;Humidity;BMP_temperature;BMP_pressure;BME280_temperature;BME280_humidity;BME280_pressure;Samples;Min_cycle;Max_cycle;Signal;HPM_P1;HPM_P2
2022/04/11 00:01:17;;;;;;;19.95;8.18;;;;;;;1.62;68.09;98721.78;5090834;28;20020;-68
2022/04/11 00:03:43;;;;;;;16.40;7.97;;;;;;;1.65;68.79;98724.03;5091141;28;20020;-68
2022/04/11 00:06:08;;;;;;;14.98;7.82;;;;;;;1.67;68.82;98718.38;5090978;28;20028;-68
2022/04/11 00:08:34;;;;;;;15.00;6.72;;;;;;;1.70;68.10;98724.16;5091066;28;20478;-68
2022/04/11 00:10:59;;;;;;;14.02;7.47;;;;;;;1.73;67.99;98709.34;5091003;28;20078;-68
2022/04/11 00:13:24;;;;;;;17.17;7.13;;;;;;;1.77;67.80;98718.63;5090726;28;20035;-68
2022/04/11 00:15:50;;;;;;;12.35;6.75;;;;;;;1.81;68.46;98719.81;5090723;28;20052;-68
2022/04/11 00:18:16;;;;;;;13.73;6.72;;;;;;;1.84;67.78;98724.78;5089045;28;20028;-67
2022/04/11 00:20:42;;;;;;;13.25;6.75;;;;;;;1.85;67.84;98725.59;5090864;28;20432;-68
2022/04/11 00:23:07;;;;;;;15.52;7.30;;;;;;;1.87;67.99;98723.47;5089867;28;20035;-68
2022/04/11 00:25:33;;;;;;;12.32;6.30;;;;;;;1.89;67.61;98722.19;5090004;28;20020;-68
2022/04/11 00:27:58;;;;;;;13.52;6.38;;;;;;;1.92;67.66;98731.72;5089933;28;20047;-68
2022/04/11 00:30:24;;;;;;;14.90;6.75;;;;;;;1.91;67.93;98721.94;5089925;28;20391;-68
2022/04/11 00:32:49;;;;;;;11.02;6.50;;;;;;;1.91;67.43;98727.38;5089876;28;20107;-68
2022/04/11 00:35:15;;;;;;;12.27;6.35;;;;;;;1.93;68.14;98728.78;5089468;28;20020;-68
2022/04/11 00:37:41;;;;;;;13.90;6.93;;;;;;;1.92;68.42;98723.59;5089833;28;20035;-68
2022/04/11 00:40:08;;;;;;;10.90;6.32;;;;;;;1.88;68.46;98722.41;5090123;28;20031;-68
2022/04/11 00:42:34;;;;;;;11.93;6.13;;;;;;;1.86;67.77;98729.94;5089707;28;20496;-68
2022/04/11 00:45:00;;;;;;;14.73;6.68;;;;;;;1.82;67.71;98731.47;5089838;28;20044;-67
2022/04/11 00:47:26;;;;;;;14.45;6.68;;;;;;;1.81;68.24;98729.84;5089847;28;20032;-68
2022/04/11 00:50:00;;;;;;;11.90;7.00;;;;;;;1.75;67.85;98727.00;5093981;28;20020;-68
2022/04/11 00:52:29;;;;;;;12.63;6.22;;;;;;;1.75;68.10;98731.56;5093775;28;20032;-68
2022/04/11 00:54:55;;;;;;;9.00;6.15;;;;;;;1.71;68.10;98727.69;5094008;28;20486;-69
2022/04/11 00:57:21;;;;;;;12.55;6.28;;;;;;;1.67;67.90;98732.72;5093437;28;20069;-68
2022/04/11 00:59:47;;;;;;;11.82;6.07;;;;;;;1.63;67.99;98729.66;5093688;28;20027;-68
2022/04/11 01:02:12;;;;;;;13.05;6.38;;;;;;;1.60;67.80;98737.41;5093554;28;20024;-67
2022/04/11 01:04:41;;;;;;;10.23;5.15;;;;;;;1.55;67.84;98731.88;5094556;28;20583;-68
2022/04/11 01:07:07;;;;;;;12.30;6.53;;;;;;;1.52;67.91;98729.63;5093840;28;20027;-67
2022/04/11 01:09:34;;;;;;;11.55;5.78;;;;;;;1.46;67.68;98736.78;5094530;28;20093;-67
2022/04/11 01:12:01;;;;;;;10.73;5.15;;;;;;;1.41;67.58;98742.06;5094204;28;20020;-67
2022/04/11 01:14:26;;;;;;;8.23;5.10;;;;;;;1.35;67.52;98738.41;5094256;28;20028;-67
2022/04/11 01:16:53;;;;;;;9.50;5.00;;;;;;;1.30;67.54;98743.66;5093611;28;20432;-67
2022/04/11 01:19:19;;;;;;;9.75;4.80;;;;;;;1.25;67.83;98746.22;5093184;28;20059;-68
2022/04/11 01:21:46;;;;;;;8.20;4.97;;;;;;;1.21;68.19;98745.03;5093541;28;20451;-67
2022/04/11 01:24:12;;;;;;;9.98;4.90;;;;;;;1.15;68.17;98750.28;5093246;28;20102;-67
2022/04/11 01:26:38;;;;;;;7.85;4.82;;;;;;;1.12;68.16;98749.91;5093048;28;20040;-68
2022/04/11 01:29:04;;;;;;;10.32;4.82;;;;;;;1.11;67.84;98757.19;5093190;28;20035;-67
2022/04/11 01:31:30;;;;;;;9.95;5.25;;;;;;;1.10;68.03;98749.31;5092650;28;20379;-67
2022/04/11 01:33:56;;;;;;;6.43;4.20;;;;;;;1.10;68.17;98752.84;5093043;28;20532;-67
2022/04/11 01:36:22;;;;;;;12.82;4.63;;;;;;;1.10;68.08;98754.72;5092602;28;20054;-67
2022/04/11 01:38:48;;;;;;;9.48;4.53;;;;;;;1.09;68.38;98761.19;5093161;28;20016;-67
2022/04/11 01:41:13;;;;;;;7.57;4.35;;;;;;;1.10;68.27;98758.22;5092619;28;20024;-67
2022/04/11 01:43:39;;;;;;;6.72;3.83;;;;;;;1.13;68.20;98757.78;5092848;28;20021;-67
2022/04/11 01:46:04;;;;;;;6.95;4.30;;;;;;;1.11;67.92;98765.28;5092453;28;20485;-67
2022/04/11 01:48:29;;;;;;;8.40;4.47;;;;;;;1.10;67.88;98760.13;5092535;28;20024;-67
2022/04/11 01:50:55;;;;;;;7.07;4.60;;;;;;;1.03;68.02;98761.03;5092508;28;20020;-67
2022/04/11 01:53:20;;;;;;;9.85;4.40;;;;;;;0.98;67.54;98766.28;5091713;28;20076;-67
2022/04/11 01:55:46;;;;;;;8.40;4.30;;;;;;;0.94;68.00;98765.09;5092486;28;20062;-68
2022/04/11 01:58:13;;;;;;;9.20;4.53;;;;;;;0.95;67.88;98766.72;5091046;28;20024;-67
2022/04/11 02:00:39;;;;;;;6.57;3.95;;;;;;;0.92;67.84;98764.47;5091581;28;20028;-68
2022/04/11 02:03:07;;;;;;;9.15;4.40;;;;;;;0.92;67.74;98767.19;5092249;28;20024;-67
2022/04/11 02:05:33;;;;;;;8.18;4.25;;;;;;;0.96;68.23;98773.78;5091948;28;20508;-68
2022/04/11 02:07:59;;;;;;;9.60;5.03;;;;;;;0.97;67.69;98770.03;5092507;28;20024;-68
2022/04/11 02:10:25;;;;;;;8.60;5.45;;;;;;;0.97;67.94;98771.91;5092378;28;20042;-67
2022/04/11 02:12:51;;;;;;;8.00;4.93;;;;;;;1.05;68.21;98774.28;5092150;28;20044;-67
2022/04/11 02:15:18;;;;;;;10.35;4.75;;;;;;;1.11;68.45;98775.28;5092006;28;20028;-68
2022/04/11 02:17:46;;;;;;;9.48;4.85;;;;;;;1.09;67.95;98772.78;5092037;28;20028;-67
2022/04/11 02:20:12;;;;;;;8.18;4.28;;;;;;;1.07;67.76;98776.78;5091714;28;20043;-67
2022/04/11 02:22:44;;;;;;;6.45;3.97;;;;;;;1.06;67.78;98781.34;5092984;28;20125;-67
2022/04/11 02:25:10;;;;;;;8.63;5.38;;;;;;;1.00;68.03;98787.69;5093182;28;20470;-68
2022/04/11 02:27:36;;;;;;;10.93;5.63;;;;;;;0.95;67.96;98782.13;5091207;28;20031;-68
2022/04/11 02:30:01;;;;;;;10.90;5.28;;;;;;;0.96;67.93;98781.06;5091592;28;20024;-68
2022/04/11 02:32:27;;;;;;;9.25;4.90;;;;;;;0.97;68.50;98783.53;5092604;28;20028;-67
2022/04/11 02:34:52;;;;;;;7.22;4.50;;;;;;;1.00;68.38;98785.78;5092913;28;20024;-68
2022/04/11 02:37:18;;;;;;;7.72;4.60;;;;;;;1.02;68.93;98788.25;5091144;28;20027;-68
2022/04/11 02:39:43;;;;;;;9.07;4.65;;;;;;;1.04;68.73;98792.41;5091175;28;20036;-68
2022/04/11 02:42:08;;;;;;;7.75;4.47;;;;;;;1.05;68.65;98787.81;5092708;28;20097;-67
2022/04/11 02:44:34;;;;;;;8.57;5.45;;;;;;;1.04;69.09;98791.56;5092734;28;20498;-67
2022/04/11 02:46:59;;;;;;;7.50;4.70;;;;;;;1.06;69.51;98796.75;5092174;28;20093;-68
2022/04/11 02:49:25;;;;;;;9.50;4.72;;;;;;;1.09;69.30;98794.41;5092322;28;20449;-68
2022/04/11 02:51:50;;;;;;;7.30;4.65;;;;;;;1.09;68.62;98788.19;5092208;28;20032;-68
2022/04/11 02:54:15;;;;;;;7.85;4.82;;;;;;;1.09;69.37;98799.00;5092494;28;20020;-68
2022/04/11 02:56:42;;;;;;;8.15;4.25;;;;;;;1.12;68.97;98807.47;5092184;28;20439;-68
2022/04/11 02:59:07;;;;;;;6.93;4.28;;;;;;;1.12;69.33;98799.34;5092538;28;20024;-68
2022/04/11 03:01:33;;;;;;;5.15;3.90;;;;;;;1.15;69.23;98804.31;5092267;28;20023;-68
2022/04/11 03:03:59;;;;;;;6.85;4.03;;;;;;;1.20;69.78;98803.66;5092134;28;20035;-68
2022/04/11 03:06:25;;;;;;;6.40;4.03;;;;;;;1.23;69.44;98803.16;5091813;28;20028;-67
2022/04/11 03:08:50;;;;;;;7.18;4.30;;;;;;;1.23;69.66;98800.47;5092017;28;20035;-68
2022/04/11 03:11:16;;;;;;;6.70;3.58;;;;;;;1.27;69.21;98803.56;5091311;28;20027;-67
2022/04/11 03:13:41;;;;;;;7.60;4.05;;;;;;;1.29;69.36;98801.47;5090560;28;20112;-68
2022/04/11 03:16:07;;;;;;;7.05;4.00;;;;;;;1.23;69.14;98800.47;5092031;28;20101;-68
2022/04/11 03:18:32;;;;;;;9.65;4.07;;;;;;;1.17;69.39;98798.69;5090429;28;20077;-67
2022/04/11 03:20:58;;;;;;;7.63;4.22;;;;;;;1.10;69.25;98806.06;5073847;28;20028;-68
2022/04/11 03:23:23;;;;;;;8.30;4.30;;;;;;;1.01;69.45;98802.84;5092112;28;20114;-68
2022/04/11 03:25:48;;;;;;;12.43;5.15;;;;;;;0.93;69.02;98809.34;5091932;28;20020;-68
2022/04/11 03:28:14;;;;;;;8.93;5.55;;;;;;;0.82;70.13;98808.22;5091855;28;20583;-68
2022/04/11 03:30:39;;;;;;;8.10;4.78;;;;;;;0.76;70.09;98809.09;5089577;28;20024;-67
2022/04/11 03:33:04;;;;;;;7.50;4.57;;;;;;;0.69;70.10;98808.34;5091284;28;20024;-67
2022/04/11 03:35:30;;;;;;;6.43;4.45;;;;;;;0.64;70.09;98809.03;5090895;28;20073;-67
2022/04/11 03:37:55;;;;;;;6.05;4.53;;;;;;;0.61;70.18;98808.66;5090643;28;20104;-67
2022/04/11 03:40:21;;;;;;;7.38;4.85;;;;;;;0.56;70.53;98812.00;5091618;28;20406;-67
2022/04/11 03:42:46;;;;;;;6.05;4.57;;;;;;;0.51;70.34;98820.78;5091636;28;20049;-67
2022/04/11 03:45:13;;;;;;;8.43;4.60;;;;;;;0.52;71.27;98826.97;5091621;28;20561;-68
2022/04/11 03:47:38;;;;;;;7.35;4.88;;;;;;;0.47;70.63;98826.81;5091584;28;20473;-67
2022/04/11 03:50:05;;;;;;;9.63;4.63;;;;;;;0.43;70.75;98823.75;5090011;28;20035;-67
2022/04/11 03:52:30;;;;;;;8.68;5.22;;;;;;;0.39;70.50;98826.06;5091279;28;20542;-68
2022/04/11 03:54:55;;;;;;;7.85;5.28;;;;;;;0.33;70.67;98820.72;5094246;28;20028;-68
2022/04/11 03:57:21;;;;;;;9.18;4.63;;;;;;;0.30;71.13;98832.78;5091316;28;20094;-67
2022/04/11 03:59:46;;;;;;;7.85;4.60;;;;;;;0.32;71.08;98838.78;5091403;28;20419;-68
2022/04/11 04:02:12;;;;;;;11.88;5.20;;;;;;;0.34;71.58;98841.25;5091513;28;20480;-68
2022/04/11 04:04:37;;;;;;;8.60;5.38;;;;;;;0.33;71.01;98847.69;5091542;28;20099;-67
2022/04/11 04:07:03;;;;;;;6.18;4.70;;;;;;;0.31;71.13;98841.69;5090802;28;20023;-68
2022/04/11 04:09:30;;;;;;;10.45;5.05;;;;;;;0.27;71.43;98844.81;5091444;28;20016;-67
2022/04/11 04:11:55;;;;;;;7.40;5.18;;;;;;;0.27;71.71;98844.00;5091111;28;20024;-68
2022/04/11 04:14:21;;;;;;;7.25;4.93;;;;;;;0.32;71.47;98846.03;5091304;28;20016;-68
2022/04/11 04:16:46;;;;;;;8.88;5.50;;;;;;;0.32;71.76;98848.75;5090764;28;20069;-67
2022/04/11 04:19:13;;;;;;;8.88;5.30;;;;;;;0.36;71.45;98849.94;5091052;28;20020;-68
2022/04/11 04:21:38;;;;;;;10.50;5.00;;;;;;;0.38;72.08;98851.41;5090997;28;20367;-67
2022/04/11 04:24:04;;;;;;;7.88;5.15;;;;;;;0.38;71.69;98855.97;5094950;28;20081;-68
2022/04/11 04:26:30;;;;;;;7.97;5.28;;;;;;;0.38;71.44;98855.97;5095214;28;20489;-68
2022/04/11 04:28:55;;;;;;;8.57;5.45;;;;;;;0.37;72.18;98863.25;5095276;28;20466;-70
2022/04/11 04:31:20;;;;;;;39.10;17.42;;;;;;;0.38;72.80;98864.06;5094593;28;20028;-68
2022/04/11 04:33:46;;;;;;;14.60;8.68;;;;;;;0.41;72.56;98861.72;5095013;28;20115;-68
2022/04/11 04:36:11;;;;;;;8.55;5.10;;;;;;;0.44;71.69;98864.00;5094465;28;20482;-68
2022/04/11 04:38:37;;;;;;;10.63;8.23;;;;;;;0.49;72.42;98871.44;5095081;28;20110;-68
2022/04/11 04:41:02;;;;;;;6.45;4.55;;;;;;;0.50;72.34;98873.09;5094857;28;20481;-68
2022/04/11 04:43:28;;;;;;;5.68;4.35;;;;;;;0.49;72.30;98871.44;5093811;28;20027;-68
2022/04/11 04:45:53;;;;;;;6.63;4.10;;;;;;;0.49;72.22;98871.44;5094532;28;20044;-68
2022/04/11 04:48:18;;;;;;;9.98;4.65;;;;;;;0.56;72.37;98865.97;5095198;28;20024;-68
2022/04/11 04:50:44;;;;;;;7.07;4.35;;;;;;;0.64;72.26;98878.38;5093581;28;20481;-68
2022/04/11 04:53:10;;;;;;;6.78;3.97;;;;;;;0.69;72.33;98883.94;5094712;28;20119;-68
2022/04/11 04:55:36;;;;;;;7.53;4.32;;;;;;;0.74;72.02;98886.78;5095036;28;20036;-68
2022/04/11 04:58:01;;;;;;;8.18;4.35;;;;;;;0.80;72.83;98883.22;5095103;28;20035;-68
2022/04/11 05:00:27;;;;;;;6.20;4.28;;;;;;;0.82;72.35;98891.94;5094325;28;20030;-69
2022/04/11 05:02:53;;;;;;;8.77;4.15;;;;;;;0.85;72.27;98899.59;5094760;28;20470;-68
2022/04/11 05:05:18;;;;;;;8.15;4.60;;;;;;;0.93;72.79;98892.25;5094736;28;20020;-68
2022/04/11 05:07:43;;;;;;;8.68;5.05;;;;;;;0.93;71.92;98901.16;5094408;28;20103;-68
2022/04/11 05:10:09;;;;;;;5.40;3.67;;;;;;;0.97;71.98;98901.56;5094350;28;20190;-68
2022/04/11 05:12:42;;;;;;;4.93;3.90;;;;;;;0.99;71.81;98897.56;5094237;28;20054;-68
2022/04/11 05:15:09;;;;;;;6.38;4.57;;;;;;;1.06;72.16;98894.81;5094265;28;20033;-69
2022/04/11 05:17:34;;;;;;;8.20;4.10;;;;;;;1.14;72.32;98899.09;5094186;28;20032;-68
2022/04/11 05:20:00;;;;;;;7.15;4.63;;;;;;;1.18;71.73;98897.63;5094372;28;20478;-68
2022/04/11 05:22:25;;;;;;;6.60;4.53;;;;;;;1.25;71.35;98901.06;5093509;28;20020;-68
2022/04/11 05:24:51;;;;;;;8.43;4.03;;;;;;;1.30;71.40;98903.09;5094108;28;20129;-68
2022/04/11 05:27:16;;;;;;;7.47;3.65;;;;;;;1.34;71.42;98905.13;5094138;28;20031;-68
2022/04/11 05:29:41;;;;;;;7.35;3.72;;;;;;;1.41;71.35;98915.03;5094112;28;20444;-68
2022/04/11 05:32:08;;;;;;;7.90;3.83;;;;;;;1.48;71.67;98915.78;5093581;28;20077;-68
2022/04/11 05:34:34;;;;;;;6.45;3.80;;;;;;;1.52;71.10;98910.75;5093855;28;20485;-68
2022/04/11 05:36:59;;;;;;;9.48;5.63;;;;;;;1.56;71.68;98915.50;5093831;28;20118;-69
2022/04/11 05:39:25;;;;;;;10.07;5.22;;;;;;;1.59;71.54;98916.91;5093931;28;20119;-68
2022/04/11 05:41:50;;;;;;;7.97;4.25;;;;;;;1.70;71.50;98926.97;5093698;28;20473;-67
2022/04/11 05:44:16;;;;;;;7.38;4.78;;;;;;;1.75;71.59;98924.41;5093807;28;20072;-68
2022/04/11 05:46:41;;;;;;;6.72;3.05;;;;;;;1.78;70.96;98918.56;5093755;28;20036;-68
2022/04/11 05:49:07;;;;;;;7.20;3.60;;;;;;;1.83;70.63;98927.88;5093516;28;20074;-69
2022/04/11 05:51:32;;;;;;;18.50;6.25;;;;;;;1.88;70.96;98920.72;5093370;28;20028;-68
2022/04/11 05:53:57;;;;;;;7.32;3.80;;;;;;;1.95;70.53;98919.81;5093604;28;20024;-68
2022/04/11 05:56:23;;;;;;;4.03;2.75;;;;;;;2.01;70.14;98925.13;5093689;28;20505;-68
2022/04/11 05:58:48;;;;;;;5.78;3.05;;;;;;;2.08;70.57;98920.44;5092747;28;20097;-68
2022/04/11 06:01:14;;;;;;;5.32;3.15;;;;;;;2.18;70.16;98919.88;5092659;28;20107;-68
2022/04/11 06:03:39;;;;;;;8.07;3.13;;;;;;;2.27;69.79;98912.25;5093867;28;20435;-69
2022/04/11 06:06:07;;;;;;;6.70;3.08;;;;;;;2.37;70.31;98911.72;5092505;28;20427;-68
2022/04/11 06:08:33;;;;;;;4.63;2.90;;;;;;;2.46;70.17;98915.72;5093277;28;20788;-68
2022/04/11 06:10:58;;;;;;;4.07;2.35;;;;;;;2.56;69.06;98914.34;5093281;28;20111;-68
2022/04/11 06:13:24;;;;;;;6.15;3.10;;;;;;;2.62;68.79;98914.25;5093405;28;20054;-68
2022/04/11 06:15:49;;;;;;;6.90;3.20;;;;;;;2.72;68.67;98912.84;5093032;28;20053;-68
2022/04/11 06:18:15;;;;;;;7.50;3.40;;;;;;;2.81;68.95;98906.84;5093388;28;20020;-68
2022/04/11 06:20:40;;;;;;;5.88;2.70;;;;;;;2.94;68.94;98904.97;5093244;28;20020;-68
2022/04/11 06:23:06;;;;;;;9.15;3.15;;;;;;;3.03;69.10;98902.75;5093037;28;20077;-68
2022/04/11 06:25:31;;;;;;;12.68;4.03;;;;;;;3.10;69.02;98909.69;5092336;28;20058;-68
2022/04/11 06:27:57;;;;;;;6.65;3.20;;;;;;;3.18;68.29;98908.50;5093122;28;20027;-68
2022/04/11 06:30:22;;;;;;;6.35;3.10;;;;;;;3.15;68.02;98910.88;5092876;28;20401;-68
2022/04/11 06:32:48;;;;;;;7.80;3.28;;;;;;;3.12;67.93;98906.72;5092460;28;20078;-68
2022/04/11 06:35:13;;;;;;;10.80;3.10;;;;;;;3.16;68.09;98920.66;5093102;28;20024;-68
2022/04/11 06:37:38;;;;;;;11.18;4.15;;;;;;;3.24;67.88;98928.44;5092670;28;20039;-68
2022/04/11 06:40:04;;;;;;;7.75;3.15;;;;;;;3.29;67.42;98931.22;5092028;28;20102;-68
2022/04/11 06:42:30;;;;;;;10.63;3.35;;;;;;;3.37;66.74;98932.78;5091095;28;20028;-68
2022/04/11 06:44:56;;;;;;;9.38;4.25;;;;;;;3.39;66.35;98939.59;5091359;28;20047;-69
2022/04/11 06:47:21;;;;;;;12.02;6.63;;;;;;;3.52;67.31;98935.00;5091843;28;20107;-68
2022/04/11 06:49:47;;;;;;;10.13;5.50;;;;;;;3.67;66.26;98937.19;5089097;28;20013;-68
2022/04/11 06:52:13;;;;;;;12.48;4.68;;;;;;;3.78;66.21;98936.38;5091324;28;20017;-67
2022/04/11 06:54:39;;;;;;;8.27;3.95;;;;;;;3.89;66.30;98929.25;5088500;28;20016;-67
2022/04/11 06:57:04;;;;;;;12.20;4.00;;;;;;;4.02;66.19;98928.97;5091791;28;20446;-68
2022/04/11 06:59:30;;;;;;;10.60;3.83;;;;;;;4.10;65.60;98927.75;5091617;28;20031;-69
2022/04/11 07:01:56;;;;;;;8.07;3.13;;;;;;;4.27;66.18;98933.22;5087275;28;20394;-69
2022/04/11 07:04:22;;;;;;;9.82;3.42;;;;;;;4.38;65.65;98930.72;5087957;28;20028;-69
2022/04/11 07:06:47;;;;;;;7.70;3.70;;;;;;;4.45;65.68;98937.63;5091215;28;20455;-69
2022/04/11 07:09:14;;;;;;;8.35;3.28;;;;;;;4.51;64.82;98935.81;5091900;28;20036;-70
2022/04/11 07:11:39;;;;;;;5.38;1.90;;;;;;;4.56;64.82;98946.78;5090728;28;20028;-69
2022/04/11 07:14:06;;;;;;;5.38;1.80;;;;;;;4.59;64.36;98943.56;5085686;28;20164;-70
2022/04/11 07:16:31;;;;;;;7.47;2.63;;;;;;;4.57;63.73;98953.06;5089883;28;20487;-69
2022/04/11 07:18:57;;;;;;;16.20;6.07;;;;;;;4.52;63.19;98948.34;5090950;28;20020;-69
2022/04/11 07:21:22;;;;;;;12.00;4.55;;;;;;;4.52;63.47;98948.34;5091358;28;20130;-68
2022/04/11 07:23:48;;;;;;;24.75;8.40;;;;;;;4.55;63.34;98944.31;5091090;28;20401;-69
2022/04/11 07:26:13;;;;;;;11.60;4.05;;;;;;;4.59;63.08;98948.19;5086363;28;20024;-68
2022/04/11 07:28:39;;;;;;;10.95;3.40;;;;;;;4.58;61.98;98944.63;5090752;28;20166;-69
2022/04/11 07:31:05;;;;;;;8.75;2.42;;;;;;;4.55;62.07;98950.56;5091156;28;20036;-68
2022/04/11 07:33:30;;;;;;;17.02;4.93;;;;;;;4.51;61.69;98946.69;5090385;28;20032;-69
2022/04/11 07:35:59;;;;;;;13.10;4.32;;;;;;;4.53;61.91;98949.16;5085766;28;20024;-68
2022/04/11 07:38:24;;;;;;;6.65;2.40;;;;;;;4.58;62.25;98943.84;5089704;28;20469;-68
2022/04/11 07:40:50;;;;;;;14.35;4.30;;;;;;;4.70;61.56;98941.84;5089159;28;20043;-68
2022/04/11 07:43:16;;;;;;;14.30;4.95;;;;;;;4.85;62.36;98944.03;5089129;28;20024;-68
2022/04/11 07:45:42;;;;;;;11.73;4.03;;;;;;;4.96;61.09;98953.16;5088246;28;20048;-68
2022/04/11 07:48:08;;;;;;;16.08;6.20;;;;;;;4.99;61.75;98955.38;5089229;28;20020;-70
2022/04/11 07:50:33;;;;;;;10.52;2.88;;;;;;;5.03;61.48;98953.00;5084242;28;20741;-68
2022/04/11 07:52:59;;;;;;;22.40;7.60;;;;;;;5.01;61.01;98961.41;5086904;28;20077;-69
2022/04/11 07:55:24;;;;;;;10.60;2.95;;;;;;;4.95;60.80;98953.41;5089488;28;20101;-67
2022/04/11 07:57:51;;;;;;;8.63;1.67;;;;;;;4.90;61.54;98960.38;5088780;28;20043;-68
2022/04/11 08:00:17;;;;;;;6.40;2.20;;;;;;;4.88;61.73;98953.56;5094709;28;20031;-68
2022/04/11 08:02:42;;;;;;;6.25;1.70;;;;;;;4.81;61.49;98952.91;5088910;28;20073;-68
2022/04/11 08:05:08;;;;;;;4.57;2.25;;;;;;;4.94;61.56;98958.03;5089611;28;20081;-67
2022/04/11 08:07:34;;;;;;;3.17;1.83;;;;;;;5.09;61.75;98949.28;5089894;28;20444;-67
2022/04/11 08:10:05;;;;;;;7.80;2.65;;;;;;;5.16;61.11;98958.09;5089644;28;20032;-67
2022/04/11 08:12:31;;;;;;;16.45;5.35;;;;;;;5.22;61.29;98959.00;5088259;28;20071;-68
2022/04/11 08:14:57;;;;;;;6.53;2.05;;;;;;;5.32;60.93;98961.03;5081342;28;20033;-68
2022/04/11 08:17:23;;;;;;;10.82;3.72;;;;;;;5.40;60.27;98955.19;5079267;28;20032;-67
2022/04/11 08:19:49;;;;;;;5.05;2.30;;;;;;;5.51;60.29;98950.69;5082952;28;20033;-68
2022/04/11 08:22:14;;;;;;;17.27;5.30;;;;;;;5.80;60.30;98947.84;5086915;28;20385;-68
2022/04/11 08:24:40;;;;;;;9.20;3.00;;;;;;;6.17;61.22;98946.38;5089510;28;20020;-68
2022/04/11 08:27:07;;;;;;;4.93;1.90;;;;;;;6.35;59.19;98937.03;5081724;28;20079;-69
2022/04/11 08:29:32;;;;;;;5.38;2.00;;;;;;;6.32;58.62;98943.00;5085033;28;20474;-68
2022/04/11 08:31:58;;;;;;;5.55;1.88;;;;;;;6.31;58.34;98942.19;5084865;28;20036;-68
2022/04/11 08:34:23;;;;;;;9.20;3.95;;;;;;;6.18;56.82;98945.31;5084008;28;20032;-68
2022/04/11 08:36:48;;;;;;;8.25;2.28;;;;;;;6.02;56.85;98939.69;5090353;28;20028;-68
2022/04/11 08:39:14;;;;;;;5.18;1.63;;;;;;;5.83;57.07;98939.16;5087403;28;20458;-68
2022/04/11 08:41:39;;;;;;;12.00;3.85;;;;;;;5.88;57.47;98933.78;5092219;28;20047;-68
2022/04/11 08:44:06;;;;;;;6.47;2.15;;;;;;;6.06;57.55;98926.38;5089286;28;20067;-68
2022/04/11 08:46:33;;;;;;;6.18;1.83;;;;;;;6.23;55.49;98932.56;5091902;28;20032;-67
2022/04/11 08:49:06;;;;;;;3.92;1.70;;;;;;;6.44;55.93;98926.50;5091650;28;20496;-67
2022/04/11 08:51:33;;;;;;;11.05;4.22;;;;;;;6.66;55.30;98931.91;5087471;28;20613;-64
2022/04/11 08:54:04;;;;;;;8.60;3.53;;;;;;;6.75;50.77;98921.34;5093334;28;20028;-67
2022/04/11 08:56:30;;;;;;;5.40;2.60;;;;;;;6.67;51.44;98934.34;5089786;28;20032;-66
2022/04/11 08:58:55;;;;;;;3.50;1.40;;;;;;;6.67;52.95;98939.00;5089191;28;20133;-68
2022/04/11 09:01:22;;;;;;;3.15;1.67;;;;;;;6.69;52.37;98937.66;5089564;28;20086;-68
2022/04/11 09:03:48;;;;;;;5.95;2.50;;;;;;;6.72;52.80;98935.50;5089408;28;20103;-68
2022/04/11 09:06:15;;;;;;;4.95;2.55;;;;;;;6.69;51.83;98937.66;5090908;28;20103;-68
2022/04/11 09:08:53;;;;;;;4.25;1.98;;;;;;;6.62;50.94;98933.50;5091708;28;20028;-68
2022/04/11 09:11:30;;;;;;;6.35;2.97;;;;;;;6.66;51.44;98931.91;5095454;28;20084;-67
2022/04/11 09:13:58;;;;;;;8.70;3.15;;;;;;;6.73;51.20;98926.22;5094836;28;20728;-68
2022/04/11 09:16:24;;;;;;;4.35;1.75;;;;;;;6.80;51.37;98922.19;5093200;28;20024;-68
2022/04/11 09:18:54;;;;;;;3.42;2.30;;;;;;;6.82;51.31;98925.47;5095062;28;20081;-67
2022/04/11 09:21:22;;;;;;;5.18;2.00;;;;;;;6.88;50.45;98926.38;5096113;28;20024;-68
2022/04/11 09:23:48;;;;;;;4.13;1.75;;;;;;;6.96;51.51;98917.69;5090816;28;20012;-67
2022/04/11 09:26:19;;;;;;;5.57;2.60;;;;;;;7.08;50.64;98922.97;5092838;28;20032;-68
2022/04/11 09:29:04;;;;;;;2.65;1.60;;;;;;;7.08;50.30;98922.97;5092855;28;20028;-68
2022/04/11 09:31:31;;;;;;;9.00;3.85;;;;;;;7.02;51.28;98924.03;5093584;28;20040;-67
2022/04/11 09:33:57;;;;;;;6.47;2.63;;;;;;;7.07;50.78;98931.41;5085537;28;20024;-68
2022/04/11 09:36:22;;;;;;;9.13;3.92;;;;;;;7.23;49.76;98926.88;5092414;28;20028;-69
2022/04/11 09:39:01;;;;;;;4.20;1.90;;;;;;;7.36;50.05;98922.84;5092207;28;20024;-68
2022/04/11 09:41:30;;;;;;;9.45;4.07;;;;;;;7.58;49.97;98919.97;5094442;28;20076;-68
2022/04/11 09:43:57;;;;;;;5.97;2.92;;;;;;;7.76;49.39;98926.88;5091004;28;20023;-68
2022/04/11 09:46:23;;;;;;;6.88;2.25;;;;;;;7.72;48.64;98912.16;5092556;28;20457;-68
2022/04/11 09:48:51;;;;;;;4.05;1.60;;;;;;;7.71;49.06;98924.16;5094858;28;20036;-67
2022/04/11 09:51:16;;;;;;;6.40;2.30;;;;;;;7.69;47.85;98923.59;5091362;28;20039;-69
2022/04/11 09:53:43;;;;;;;5.32;2.10;;;;;;;7.69;48.68;98920.88;5094568;28;20032;-71
2022/04/11 09:56:10;;;;;;;2.72;1.42;;;;;;;7.78;47.63;98915.72;5092029;28;20028;-67
2022/04/11 09:58:38;;;;;;;2.85;1.30;;;;;;;7.94;47.59;98911.13;5092442;28;20389;-70
2022/04/11 10:01:05;;;;;;;4.00;1.58;;;;;;;8.21;48.09;98913.69;5091870;28;20082;-69
2022/04/11 10:03:31;;;;;;;5.93;2.03;;;;;;;8.47;48.56;98921.94;5094996;28;20587;-69
2022/04/11 10:05:57;;;;;;;4.65;1.60;;;;;;;8.50;45.75;98915.94;5092658;28;20032;-70
2022/04/11 10:08:27;;;;;;;5.20;2.40;;;;;;;8.36;46.28;98915.63;5095965;28;20032;-69
2022/04/11 10:10:54;;;;;;;7.00;2.72;;;;;;;8.11;46.77;98921.84;5090855;28;20046;-69
2022/04/11 10:13:20;;;;;;;2.70;1.30;;;;;;;7.80;46.78;98935.38;5090029;28;20024;-70
2022/04/11 10:15:48;;;;;;;4.43;1.58;;;;;;;7.39;47.79;98930.53;5092419;28;20031;-72
2022/04/11 10:18:16;;;;;;;2.92;1.52;;;;;;;7.18;49.58;98937.75;5091771;28;20162;-70
2022/04/11 10:20:46;;;;;;;2.95;1.48;;;;;;;6.94;51.82;98947.13;5089599;28;20024;-70
2022/04/11 10:23:27;;;;;;;5.78;2.40;;;;;;;6.69;51.91;98942.28;5091145;28;20035;-70
2022/04/11 10:25:56;;;;;;;3.30;1.45;;;;;;;6.42;51.20;98931.41;5091270;28;20017;-69
2022/04/11 10:28:27;;;;;;;9.90;3.72;;;;;;;6.33;52.25;98934.59;5091702;28;20066;-69
2022/04/11 10:31:10;;;;;;;7.28;3.22;;;;;;;6.39;52.55;98933.56;5091764;28;20027;-69
2022/04/11 10:33:50;;;;;;;11.90;5.78;;;;;;;6.78;53.22;98927.09;5095474;28;20036;-73
2022/04/11 10:36:30;;;;;;;8.57;3.33;;;;;;;7.35;53.49;98926.66;5091509;28;20039;-69
2022/04/11 10:39:13;;;;;;;;;;;;;;;7.65;53.70;98920.56;5092262;28;20055;-69
2022/04/11 10:41:54;;;;;;;3.40;1.73;;;;;;;7.83;53.87;98900.16;5091768;28;19914;-70
2022/04/11 10:44:40;;;;;;;4.82;2.35;;;;;;;7.86;52.21;98899.63;5092806;28;20442;-68
2022/04/11 10:47:11;;;;;;;5.80;2.55;;;;;;;7.80;50.95;98908.09;5092241;28;20474;-69
2022/04/11 10:49:48;;;;;;;8.43;3.50;;;;;;;7.69;48.94;98915.41;5091915;28;20074;-69
2022/04/11 10:52:32;;;;;;;3.53;2.15;;;;;;;7.53;50.38;98911.78;5088375;28;20035;-69
2022/04/11 10:55:17;;;;;;;12.75;5.13;;;;;;;7.50;50.14;98918.59;5091597;28;20048;-69
2022/04/11 10:57:42;;;;;;;8.98;3.78;;;;;;;7.62;50.09;98907.44;5092147;28;20430;-68
2022/04/11 11:00:14;;;;;;;21.65;6.47;;;;;;;7.85;50.11;98905.38;5090466;28;20145;-69
2022/04/11 11:02:59;;;;;;;6.28;2.25;;;;;;;7.95;49.61;98910.84;5091531;28;20024;-69
2022/04/11 11:05:36;;;;;;;3.78;1.33;;;;;;;8.13;47.92;98908.75;5092691;28;20035;-69
2022/04/11 11:08:09;;;;;;;5.93;1.60;;;;;;;8.27;47.59;98900.84;5087649;28;20450;-68
2022/04/11 11:10:45;;;;;;;3.05;1.40;;;;;;;8.30;45.76;98908.50;5091938;28;20055;-68
2022/04/11 11:13:35;;;;;;;7.80;2.67;;;;;;;8.08;46.48;98900.53;5077064;28;20024;-68
2022/04/11 11:16:07;;;;;;;6.93;2.63;;;;;;;7.97;47.23;98900.47;5091708;28;20036;-69
2022/04/11 11:18:54;;;;;;;5.05;2.28;;;;;;;7.92;47.10;98910.59;5091919;28;20024;-67
2022/04/11 11:21:28;;;;;;;7.57;2.67;;;;;;;7.81;47.03;98901.53;5091958;28;20047;-69
2022/04/11 11:24:10;;;;;;;5.95;2.05;;;;;;;7.83;48.06;98894.72;5091772;28;20020;-68
2022/04/11 11:26:52;;;;;;;5.30;2.33;;;;;;;8.17;48.35;98896.19;5091355;28;20055;-68
2022/04/11 11:29:20;;;;;;;4.85;2.15;;;;;;;8.38;45.96;98888.00;5090955;28;20020;-68
2022/04/11 11:31:49;;;;;;;2.63;1.20;;;;;;;8.46;43.96;98891.06;5091634;28;20066;-69
2022/04/11 11:34:17;;;;;;;4.20;1.42;;;;;;;8.54;42.81;98886.16;5091405;28;20107;-68
2022/04/11 11:36:43;;;;;;;9.80;3.28;;;;;;;8.58;42.72;98871.69;5091280;28;20059;-68
2022/04/11 11:39:16;;;;;;;9.43;3.03;;;;;;;8.70;43.41;98870.59;5091951;28;20110;-68